Juniata, Iowa
Current Conditions -  °F | °C
As of 8:55 AM on Monday 22 Dec 2014 (Local Time) from KSLB Reporting Station
Haze Haze  
Wind Chill: 30°   Ceiling: 300
Heat Index: 39°   Visibility: 1.7mi
Dew Point: 39°   Wind: 18mph
Humidity: 100%   Direction: 150°SSE
Pressure: 29.53"   Gusts: NA
Location:  42.674°N, 95.1635°W
Report Text: KSLB 221455Z AUTO 15016KT 1 3/4SM BR OVC003 04/04 A2953 RMK AO2 P0001
Loading
Personal Weather Stations






























Interactive Weather Map New forecast layout! Learn more

10-Day Weather Forecast

Advertisements
Track Severe Weather on mobile